Latest Coastal Weather Observations for Mackay

IDQ60701

Issued at 8:51 pm EST Monday 31 August 2015 (issued every 10 minutes, with the page automatically refreshed every 10 minutes)

About coastal observations | Map of coastal stations | Coastal observations for QLD | Marine services | Other Formats
Station Details ID: 033119 Name: MACKAY M.O Lat: -21.12 Lon: 149.22 Height: 30.26 m
Data from the previous 72 hours. | See also: Recent months at Mackay
Date/Time
EST
Temp

°C
Wind Pressure Rain
since 9am
mm
Weather Cloud Vis
km
Sea
Height
m
Swell
Dir
 
Speed
knots
Gust
knots
hPa Trend Height
m
Period
s
Dir
31/08:30pm 20.3 ENE 4 6 1016.7 - 0.0 - Partly cloudy - - - - -
31/08:00pm 20.4 ENE 6 7 1016.6 - 0.0 - Partly cloudy - - - - -
31/07:30pm 20.8 E 6 9 1016.3 - 0.0 - Partly cloudy - - - - -
31/07:00pm 20.8 ENE 5 9 1015.9 - 0.0 - Partly cloudy - - - - -
31/06:30pm 20.6 E 6 8 1015.5 - 0.0 - Partly cloudy - - - - -
31/06:00pm 20.7 E 6 8 1015.2 R 0.0 - Partly cloudy - - - - -
31/05:30pm 21.0 E 8 11 1015.0 - 0.0 - - - - - - -
31/05:00pm 21.2 E 7 11 1014.4 - 0.0 - - - - - - -
31/04:30pm 21.5 E 8 11 1014.2 - 0.0 - - - - - - -
31/04:00pm 22.0 E 9 13 1014.0 - 0.0 - Mostly clear 10 - - - -
31/03:30pm 22.8 ENE 9 13 1014.0 - 0.0 - Mostly clear 10 - - - -
31/03:00pm 22.5 E 9 14 1014.2 S 0.0 Fine Mostly clear 25 - - - -
31/02:30pm 22.1 E 9 13 1014.5 - 0.0 - Mostly clear 10 - - - -
31/02:00pm 22.1 E 9 13 1014.8 - 0.0 - Mostly clear 10 - - - -
31/01:30pm 22.6 ESE 8 13 1015.3 - 0.0 - - - - - - -
31/01:00pm 22.6 ESE 9 14 1015.9 - 0.0 - Mostly clear 10 - - - -
31/12:30pm 23.0 SE 9 14 1016.2 - 0.0 - Mostly clear 10 - - - -
31/12:00pm 22.7 SE 9 15 1016.5 F 0.0 Fine Mostly clear 25 - - - -
31/11:30am 22.8 SE 8 13 1017.2 - 0.0 - Mostly clear 10 - - - -
31/11:00am 22.6 SE 10 15 1017.8 - 0.0 - Mostly clear 10 - - - -
31/10:30am 22.8 SSE 11 15 1018.0 - 0.0 - Mostly clear 10 - - - -
31/10:00am 22.0 SSE 10 16 1018.4 - 0.0 - Mostly clear 10 - - - -
31/09:30am 21.7 SSE 10 15 1018.4 - 0.0 - Mostly clear 10 - - - -
31/09:00am 20.6 SSE 10 14 1018.3 R 0.2 Haze Partly cloudy 20 - - - -
31/08:30am 19.4 S 8 11 1018.1 - 0.2 - Mostly clear 10 - - - -
31/08:00am 18.2 S 5 7 1017.8 - 0.2 - Mostly clear 10 - - - -
31/07:30am 17.2 SSW 6 7 1017.5 - 0.2 - Mostly clear 10 - - - -
31/07:00am 15.9 SSW 6 7 1017.1 - 0.2 - Mostly clear 10 - - - -
31/06:30am 15.6 SSW 6 8 1016.7 - 0.2 - Mostly clear 10 - - - -
31/06:00am 15.6 SW 6 7 1016.2 R 0.2 Shallow fog Partly cloudy 18 - - - -
31/05:30am 16.0 SW 6 7 1015.8 - 0.0 - - - - - - -
31/05:00am 16.4 SW 6 7 1015.6 - 0.0 - Partly cloudy - - - - -
31/04:30am 16.7 SW 6 7 1015.3 - 0.0 - Partly cloudy - - - - -
31/04:00am 16.9 SW 7 8 1015.3 - 0.0 - - - - - - -
31/03:30am 17.0 WSW 6 8 1015.4 - 0.0 - - - - - - -
31/03:00am 17.5 WSW 6 8 1015.6 - 0.0 - - - - - - -
31/02:30am 17.4 WSW 6 8 1015.9 - 0.0 - - - - - - -
31/02:00am 17.6 WSW 6 8 1016.0 - 0.0 - - - - - - -
31/01:30am 17.6 SW 7 8 1016.2 - 0.0 - - - - - - -
31/01:00am 17.9 SW 6 8 1016.3 - 0.0 - - - - - - -
31/12:30am 18.0 SW 6 7 1016.5 - 0.0 - - - - - - -
31/12:00am 18.1 SW 6 8 1016.5 - 0.0 - - - - - - -
 
Date/Time
EST
Temp

°C
Wind Pressure Rain
since 9am
mm
Weather Cloud Vis
km
Sea
Height
m
Swell
Dir
 
Speed
knots
Gust
knots
hPa Trend Height
m
Period
s
Dir
30/11:30pm 18.3 SW 6 6 1016.7 - 0.0 - - - - - - -
30/11:00pm 18.6 SW 5 6 1016.8 - 0.0 - - - - - - -
30/10:30pm 18.9 SW 5 5 1016.9 - 0.0 - - - - - - -
30/10:00pm 19.1 SSW 6 6 1017.0 - 0.0 - - - - - - -
30/09:30pm 19.2 SW 6 7 1016.8 - 0.0 - - - - - - -
30/09:00pm 20.0 WNW 3 4 1016.8 F 0.0 - - - - - - -
30/08:30pm 20.2 CALM 0 0 1016.7 - 0.0 - Partly cloudy - - - - -
30/08:00pm 20.6 SW 4 5 1016.5 - 0.0 - Partly cloudy - - - - -
30/07:30pm 20.7 SSE 7 9 1015.9 - 0.0 - Partly cloudy - - - - -
30/07:00pm 20.4 SE 5 7 1015.6 - 0.0 - Partly cloudy - - - - -
30/06:30pm 20.5 ESE 4 6 1015.3 - 0.0 - - - - - - -
30/06:00pm 20.6 SE 5 6 1015.1 R 0.0 - Mostly clear - - - - -
30/05:33pm 21.0 SE 5 8 1014.9 - 0.0 - Partly cloudy - - - - -
30/05:30pm 21.1 SE 5 8 1014.8 - 0.0 - Partly cloudy - - - - -
30/05:15pm 21.3 SSE 6 9 1014.6 - 0.0 - Partly cloudy - - - - -
30/05:00pm 21.3 SSE 6 9 1014.4 - 0.0 - Partly cloudy 10 - - - -
30/04:30pm 21.3 SE 6 9 1014.2 - 0.0 - Partly cloudy 10 - - - -
30/04:27pm 21.3 SE 6 9 1014.3 - 0.0 - Partly cloudy 10 - - - -
30/04:00pm 21.7 SE 7 10 1014.4 - 0.0 - Partly cloudy 10 - - - -
30/03:30pm 22.0 SE 7 11 1014.4 - 0.0 - Partly cloudy 10 - - - -
30/03:00pm 22.1 E 6 10 1014.3 S 0.0 Distant precip. Mostly cloudy 15 - - - -
30/02:30pm 22.9 ENE 6 9 1014.5 - 0.0 - Mostly clear 10 - - - -
30/02:00pm 22.1 E 9 12 1014.7 - 0.0 - Mostly clear 10 - - - -
30/01:30pm 23.3 E 8 12 1015.1 - 0.0 - Partly cloudy - - - - -
30/01:00pm 22.8 E 8 12 1015.5 - 0.0 - Partly cloudy 10 - - - -
30/12:30pm 23.6 E 8 11 1015.9 - 0.0 - Partly cloudy 10 - - - -
30/12:00pm 23.9 E 8 12 1016.6 F 0.0 Haze Partly cloudy 18 - - - -
30/11:30am 22.8 E 7 11 1017.2 - 0.0 - Partly cloudy 10 - - - -
30/11:00am 22.5 ESE 6 10 1017.7 - 0.0 - Partly cloudy 10 - - - -
30/10:30am 23.2 ESE 7 10 1018.1 - 0.0 - Partly cloudy 10 - - - -
30/10:07am 22.2 SE 7 11 1018.5 - 0.0 - Mostly clear 10 - - - -
30/10:00am 21.8 SE 6 10 1018.5 - 0.0 - Partly cloudy 10 - - - -
30/09:30am 22.0 SE 6 9 1018.3 - 0.0 Rain Partly cloudy 10 - - - -
30/09:29am 21.9 SE 6 9 1018.3 - 0.0 - Partly cloudy - - - - -
30/09:00am 23.1 SE 6 9 1018.2 S 0.0 Haze Mostly cloudy 18 - - - -
30/08:30am 21.9 S 6 8 1018.1 - 0.0 - Mostly clear 10 - - - -
30/08:00am 21.1 SSW 5 7 1017.8 - 0.0 - Partly cloudy - - - - -
30/07:30am 19.7 SSW 6 7 1017.6 - 0.0 - Mostly clear 10 - - - -
30/07:00am 19.1 SW 5 6 1017.4 - 0.0 - Mostly clear 10 - - - -
30/06:30am 18.8 SW 6 7 1017.0 - 0.0 - Mostly clear 10 - - - -
30/06:00am 18.8 SW 5 6 1016.6 S 0.0 Haze Mostly cloudy 12 - - - -
30/05:30am 18.7 WSW 6 7 1016.4 - 0.0 - Partly cloudy - - - - -
30/05:26am 18.7 SW 6 7 1016.4 - 0.0 - Partly cloudy - - - - -
30/05:00am 18.6 WSW 5 7 1016.1 - 0.0 - Partly cloudy - - - - -
30/04:48am 18.6 SW 5 7 1016.0 - 0.0 - Partly cloudy - - - - -
30/04:30am 18.8 SW 4 6 1015.7 - 0.0 - Cloudy - - - - -
30/04:00am 18.8 WSW 5 7 1016.0 - 0.0 - Partly cloudy - - - - -
30/03:30am 19.2 SW 4 4 1015.9 - 0.0 - Partly cloudy - - - - -
30/03:00am 19.6 SW 4 4 1016.1 - 0.0 - - - - - - -
30/02:30am 19.5 SW 5 5 1016.5 - 0.0 - Partly cloudy - - - - -
30/02:00am 19.5 SSW 4 4 1016.4 - 0.0 - Cloudy - - - - -
30/01:30am 19.4 SW 5 7 1017.2 - 0.0 - Partly cloudy - - - - -
30/01:00am 19.3 SSW 5 7 1017.4 - 0.0 - Partly cloudy - - - - -
30/12:30am 19.4 SW 6 7 1017.9 - 0.0 - Partly cloudy - - - - -
30/12:00am 19.4 SW 5 6 1017.8 - 0.0 - Mostly cloudy - - - - -
 
Date/Time
EST
Temp

°C
Wind Pressure Rain
since 9am
mm
Weather Cloud Vis
km
Sea
Height
m
Swell
Dir
 
Speed
knots
Gust
knots
hPa Trend Height
m
Period
s
Dir
29/11:30pm 19.6 SW 5 6 1018.0 - 0.0 - Partly cloudy - - - - -
29/11:00pm 20.3 NNW 3 4 1017.7 - 0.0 - Partly cloudy - - - - -
29/10:30pm 20.3 NNW 3 4 1017.7 - 0.0 - - - - - - -
29/10:00pm 20.5 N 3 5 1017.6 - 0.0 - - - - - - -
29/09:30pm 20.8 NNE 5 8 1017.5 - 0.0 - Partly cloudy - - - - -
29/09:00pm 20.7 NNE 5 8 1017.8 F 0.0 - Mostly clear - - - - -
29/08:30pm 20.8 NNE 4 7 1018.1 - 0.0 - Partly cloudy - - - - -
29/08:00pm 20.8 NE 5 7 1017.7 - 0.0 - - - - - - -
29/07:30pm 20.8 NE 4 8 1017.3 - 0.0 - - - - - - -
29/07:00pm 21.3 ENE 5 9 1016.7 - 0.0 - - - - - - -
29/06:30pm 21.3 ENE 5 9 1016.8 - 0.0 - - - - - - -
29/06:00pm 21.4 NE 5 8 1016.8 F 0.0 - - - - - - -
29/05:30pm 22.0 NE 6 9 1016.8 - 0.0 - - - - - - -
29/05:00pm 22.6 NE 6 8 1016.9 - 0.0 - Mostly clear 10 - - - -
29/04:30pm 23.3 ENE 7 11 1016.8 - 0.0 - Mostly clear 10 - - - -
29/04:00pm 23.2 E 9 11 1016.7 - 0.0 - Mostly clear 10 - - - -
29/03:30pm 24.0 E 8 11 1017.0 - 0.0 - Mostly clear 10 - - - -
29/03:00pm 23.8 E 9 12 1017.0 F 0.0 Haze Mostly clear 18 - - - -
29/02:30pm 24.4 ENE 8 11 1017.3 - 0.0 - Mostly clear 10 - - - -
29/02:00pm 24.4 E 8 11 1017.6 - 0.0 - Mostly clear 10 - - - -
29/01:30pm 24.7 E 7 11 1018.3 - 0.0 - - - - - - -
29/01:00pm 23.2 ESE 6 10 1018.7 - 0.0 - Mostly clear 10 - - - -
29/12:30pm 23.4 ESE 7 9 1019.1 - 0.0 - Mostly clear 10 - - - -
29/12:00pm 23.6 ESE 7 11 1019.7 F 0.0 Haze Mostly clear 18 - - - -
29/11:30am 23.9 ESE 6 8 1020.1 - 0.0 - Mostly clear 10 - - - -
29/11:00am 23.9 SE 5 9 1020.4 - 0.0 - Mostly clear 10 - - - -
29/10:30am 22.5 SSE 5 7 1021.0 - 0.0 - Mostly clear 10 - - - -
29/10:00am 22.4 SSE 6 9 1021.2 - 0.0 - Mostly clear 10 - - - -
29/09:30am 22.6 SSE 6 8 1021.1 - 0.0 - Mostly clear 10 - - - -
29/09:00am 22.6 SSE 5 9 1020.8 S 0.0 Haze Partly cloudy 18 - - - -
29/08:30am 20.9 SSW 6 7 1020.6 - 0.0 - Partly cloudy 10 - - - -
29/08:00am 19.3 SSW 4 5 1020.5 - 0.0 - Partly cloudy 10 - - - -
29/07:30am 18.3 SW 5 6 1020.2 - 0.0 - Partly cloudy 10 - - - -
29/07:00am 17.2 WSW 7 8 1019.9 - 0.0 - Partly cloudy 4 - - - -
29/06:30am 16.7 SW 6 7 1019.5 - 0.0 - Partly cloudy 5 - - - -
29/06:00am 16.7 SW 7 8 1019.2 R 0.0 Shallow fog Partly cloudy 3 - - - -
29/05:43am 16.6 SW 7 9 1019.0 - 0.0 - Partly cloudy - - - - -
29/05:30am 16.3 SW 6 8 1018.9 - 0.0 - Partly cloudy - - - - -
29/05:18am 16.4 SW 7 9 1018.8 - 0.0 - Partly cloudy - - - - -
29/05:00am 16.4 SW 7 9 1018.5 - 0.0 - Partly cloudy - - - - -
29/04:32am 16.6 SW 7 9 1018.1 - 0.0 - Partly cloudy - - - - -
29/04:30am 16.7 SW 7 9 1018.1 - 0.0 - Partly cloudy - - - - -
29/04:00am 17.0 SW 5 7 1018.0 - 0.0 - - - - - - -
29/03:30am 17.5 SW 6 7 1018.2 - 0.0 - - - - - - -
29/03:00am 17.6 SW 6 7 1018.5 - 0.0 - Mostly clear - - - - -
29/02:30am 17.7 SW 6 7 1018.8 - 0.0 - Partly cloudy - - - - -
29/02:00am 17.6 SW 6 7 1019.2 - 0.0 - - - - - - -
29/01:30am 17.8 SW 6 6 1019.6 - 0.0 - - - - - - -
29/01:00am 18.0 SW 6 7 1020.0 - 0.0 - - - - - - -
29/12:30am 18.2 SW 6 8 1020.2 - 0.0 - Partly cloudy - - - - -
29/12:24am 18.2 SW 7 8 1020.2 - 0.0 - Partly cloudy - - - - -
29/12:00am 18.3 SW 5 6 1020.1 - 0.0 - Mostly cloudy - - - - -
 
Date/Time
EST
Temp

°C
Wind Pressure Rain
since 9am
mm
Weather Cloud Vis
km
Sea
Height
m
Swell
Dir
 
Speed
knots
Gust
knots
hPa Trend Height
m
Period
s
Dir
28/11:47pm 18.4 SW 5 7 1020.0 - 0.0 - Partly cloudy - - - - -
28/11:30pm 18.7 WSW 5 6 1019.9 - 0.0 - Partly cloudy - - - - -
28/11:00pm 19.1 SW 4 5 1019.9 - 0.0 - - - - - - -
28/10:30pm 19.2 SW 4 5 1020.0 - 0.0 - Partly cloudy - - - - -
28/10:00pm 20.2 SE 2 5 1020.0 - 0.0 - - - - - - -
28/09:30pm 20.7 ENE 5 6 1020.2 - 0.0 - - - - - - -
28/09:00pm 20.7 NE 3 5 1020.2 S 0.0 - - - - - - -

Other Formats:

Comma delimited format used in spreadsheet applications
http://www.bom.gov.au/fwo/IDQ60701/IDQ60701.94367.axf

JavaScript Object Notation format (JSON) in row-major order
http://www.bom.gov.au/fwo/IDQ60701/IDQ60701.94367.json